Amsterdam, Ohio
Current Conditions -  °F | °C
As of 11:01 AM on Thursday 29 Jan 2015 (Local Time) from KHLG Reporting Station
Freezing Rain Freezing Rain  
Wind Chill: 25°   Ceiling: 5500
Heat Index: 34°   Visibility: 6mi
Dew Point: 23°   Wind: 12mph
Humidity: 64%   Direction: 180°S
Pressure: 29.91"   Gusts: NA
Location:  40.47°N, 80.92°W
Report Text: KHLG 291601Z 18010KT 6SM -FZRA OVC055 01/M05 A2991 RMK AO2 RAE1555FZRAB1555 P0000 I1001 T00111050
Loading
Personal Weather Stations






























Interactive Weather Map New forecast layout! Learn more

10-Day Weather Forecast

Advertisements
Track Severe Weather on mobile